sensor_id;sensor_type;location;lat;lon;timestamp;temperature;humidity
15717;DHT22;7960;50.908;4.204;2022-11-28T00:02:24;8.30;99.90
15717;DHT22;7960;50.908;4.204;2022-11-28T00:04:51;8.30;99.90
15717;DHT22;7960;50.908;4.204;2022-11-28T00:07:18;8.30;99.90
15717;DHT22;7960;50.908;4.204;2022-11-28T00:09:45;8.30;99.90
15717;DHT22;7960;50.908;4.204;2022-11-28T00:12:12;8.20;99.90
15717;DHT22;7960;50.908;4.204;2022-11-28T00:14:40;8.20;99.90
15717;DHT22;7960;50.908;4.204;2022-11-28T00:17:07;8.20;99.90
15717;DHT22;7960;50.908;4.204;2022-11-28T00:19:34;8.10;99.90
15717;DHT22;7960;50.908;4.204;2022-11-28T00:22:00;8.10;99.90
15717;DHT22;7960;50.908;4.204;2022-11-28T00:24:27;8.10;99.90
15717;DHT22;7960;50.908;4.204;2022-11-28T00:26:54;8.10;99.90
15717;DHT22;7960;50.908;4.204;2022-11-28T00:29:21;8.00;99.90
15717;DHT22;7960;50.908;4.204;2022-11-28T00:31:49;8.00;99.90
15717;DHT22;7960;50.908;4.204;2022-11-28T00:34:16;8.00;99.90
15717;DHT22;7960;50.908;4.204;2022-11-28T00:36:44;8.00;99.90
15717;DHT22;7960;50.908;4.204;2022-11-28T00:39:12;8.00;99.90
15717;DHT22;7960;50.908;4.204;2022-11-28T00:41:39;8.00;99.90
15717;DHT22;7960;50.908;4.204;2022-11-28T00:44:07;8.00;99.90
15717;DHT22;7960;50.908;4.204;2022-11-28T00:46:34;7.90;99.90
15717;DHT22;7960;50.908;4.204;2022-11-28T00:49:02;7.90;99.90
15717;DHT22;7960;50.908;4.204;2022-11-28T00:51:31;7.90;99.90
15717;DHT22;7960;50.908;4.204;2022-11-28T00:53:59;7.90;99.90
15717;DHT22;7960;50.908;4.204;2022-11-28T00:56:28;7.90;99.90
15717;DHT22;7960;50.908;4.204;2022-11-28T00:58:55;7.80;99.90
15717;DHT22;7960;50.908;4.204;2022-11-28T01:01:25;8.00;99.90
15717;DHT22;7960;50.908;4.204;2022-11-28T01:03:54;7.80;99.90
15717;DHT22;7960;50.908;4.204;2022-11-28T01:06:24;7.80;99.90
15717;DHT22;7960;50.908;4.204;2022-11-28T01:08:51;7.80;99.90
15717;DHT22;7960;50.908;4.204;2022-11-28T01:11:19;7.80;99.90
15717;DHT22;7960;50.908;4.204;2022-11-28T01:13:47;7.80;99.90
15717;DHT22;7960;50.908;4.204;2022-11-28T01:16:15;7.90;99.90
15717;DHT22;7960;50.908;4.204;2022-11-28T01:18:42;7.80;99.90
15717;DHT22;7960;50.908;4.204;2022-11-28T01:21:09;7.90;99.90
15717;DHT22;7960;50.908;4.204;2022-11-28T01:23:37;7.80;99.90
15717;DHT22;7960;50.908;4.204;2022-11-28T01:26:07;7.80;99.90
15717;DHT22;7960;50.908;4.204;2022-11-28T01:28:35;7.90;99.90
15717;DHT22;7960;50.908;4.204;2022-11-28T01:31:04;7.80;99.90
15717;DHT22;7960;50.908;4.204;2022-11-28T01:33:31;7.80;99.90
15717;DHT22;7960;50.908;4.204;2022-11-28T01:35:59;7.90;99.90
15717;DHT22;7960;50.908;4.204;2022-11-28T01:38:26;7.80;99.90
15717;DHT22;7960;50.908;4.204;2022-11-28T01:40:55;7.80;99.90
15717;DHT22;7960;50.908;4.204;2022-11-28T01:43:23;7.80;99.90
15717;DHT22;7960;50.908;4.204;2022-11-28T01:45:50;7.80;99.90
15717;DHT22;7960;50.908;4.204;2022-11-28T01:48:22;7.90;99.90
15717;DHT22;7960;50.908;4.204;2022-11-28T01:50:52;7.90;99.90
15717;DHT22;7960;50.908;4.204;2022-11-28T01:53:21;7.80;99.90
15717;DHT22;7960;50.908;4.204;2022-11-28T01:55:53;7.80;99.90
15717;DHT22;7960;50.908;4.204;2022-11-28T01:58:23;7.80;99.90
15717;DHT22;7960;50.908;4.204;2022-11-28T02:00:50;7.90;99.90
15717;DHT22;7960;50.908;4.204;2022-11-28T02:03:20;7.90;99.90
15717;DHT22;7960;50.908;4.204;2022-11-28T02:05:49;7.80;99.90
15717;DHT22;7960;50.908;4.204;2022-11-28T02:08:17;7.90;99.90
15717;DHT22;7960;50.908;4.204;2022-11-28T02:10:55;7.90;99.90
15717;DHT22;7960;50.908;4.204;2022-11-28T02:13:33;7.90;99.90
15717;DHT22;7960;50.908;4.204;2022-11-28T02:16:23;7.80;99.90
15717;DHT22;7960;50.908;4.204;2022-11-28T02:19:04;7.90;99.90
15717;DHT22;7960;50.908;4.204;2022-11-28T02:21:51;7.90;99.90
15717;DHT22;7960;50.908;4.204;2022-11-28T02:24:51;7.90;99.90
15717;DHT22;7960;50.908;4.204;2022-11-28T02:27:45;7.90;99.90
15717;DHT22;7960;50.908;4.204;2022-11-28T02:30:21;7.90;99.90
15717;DHT22;7960;50.908;4.204;2022-11-28T02:33:02;7.90;99.90
15717;DHT22;7960;50.908;4.204;2022-11-28T02:35:37;7.90;99.90
15717;DHT22;7960;50.908;4.204;2022-11-28T02:38:15;7.90;99.90
15717;DHT22;7960;50.908;4.204;2022-11-28T02:40:50;7.90;99.90
15717;DHT22;7960;50.908;4.204;2022-11-28T02:43:29;7.90;99.90
15717;DHT22;7960;50.908;4.204;2022-11-28T02:46:03;7.90;99.90
15717;DHT22;7960;50.908;4.204;2022-11-28T02:48:37;7.90;99.90
15717;DHT22;7960;50.908;4.204;2022-11-28T02:51:11;8.00;99.90
15717;DHT22;7960;50.908;4.204;2022-11-28T02:53:42;8.00;99.90
15717;DHT22;7960;50.908;4.204;2022-11-28T02:56:11;8.00;99.90
15717;DHT22;7960;50.908;4.204;2022-11-28T02:58:39;8.00;99.90
15717;DHT22;7960;50.908;4.204;2022-11-28T03:01:14;8.00;99.90
15717;DHT22;7960;50.908;4.204;2022-11-28T03:03:57;8.00;99.90
15717;DHT22;7960;50.908;4.204;2022-11-28T03:06:38;8.00;99.90
15717;DHT22;7960;50.908;4.204;2022-11-28T03:09:41;8.10;99.90
15717;DHT22;7960;50.908;4.204;2022-11-28T03:12:21;8.10;99.90
15717;DHT22;7960;50.908;4.204;2022-11-28T03:14:52;8.10;99.90
15717;DHT22;7960;50.908;4.204;2022-11-28T03:17:25;8.10;99.90
15717;DHT22;7960;50.908;4.204;2022-11-28T03:20:00;7.90;99.90
15717;DHT22;7960;50.908;4.204;2022-11-28T03:22:39;8.10;99.90
15717;DHT22;7960;50.908;4.204;2022-11-28T03:25:13;8.10;99.90
15717;DHT22;7960;50.908;4.204;2022-11-28T03:27:45;8.00;99.90
15717;DHT22;7960;50.908;4.204;2022-11-28T03:30:18;8.10;99.90
15717;DHT22;7960;50.908;4.204;2022-11-28T03:32:50;8.10;99.90
15717;DHT22;7960;50.908;4.204;2022-11-28T03:35:23;8.10;99.90
15717;DHT22;7960;50.908;4.204;2022-11-28T03:37:52;8.10;99.90
15717;DHT22;7960;50.908;4.204;2022-11-28T03:40:24;8.00;99.90
15717;DHT22;7960;50.908;4.204;2022-11-28T03:42:57;8.00;99.90
15717;DHT22;7960;50.908;4.204;2022-11-28T03:45:26;8.00;99.90
15717;DHT22;7960;50.908;4.204;2022-11-28T03:47:57;8.00;99.90
15717;DHT22;7960;50.908;4.204;2022-11-28T03:50:30;8.10;99.90
15717;DHT22;7960;50.908;4.204;2022-11-28T03:53:02;8.10;99.90
15717;DHT22;7960;50.908;4.204;2022-11-28T03:55:34;8.10;99.90
15717;DHT22;7960;50.908;4.204;2022-11-28T03:58:07;8.10;99.90
15717;DHT22;7960;50.908;4.204;2022-11-28T04:00:43;8.10;99.90
15717;DHT22;7960;50.908;4.204;2022-11-28T04:03:21;8.10;99.90
15717;DHT22;7960;50.908;4.204;2022-11-28T04:05:58;8.10;99.90
15717;DHT22;7960;50.908;4.204;2022-11-28T04:08:28;8.10;99.90
15717;DHT22;7960;50.908;4.204;2022-11-28T04:11:02;8.20;99.90
15717;DHT22;7960;50.908;4.204;2022-11-28T04:13:33;8.20;99.90
15717;DHT22;7960;50.908;4.204;2022-11-28T04:16:03;8.10;99.90
15717;DHT22;7960;50.908;4.204;2022-11-28T04:18:39;8.20;99.90
15717;DHT22;7960;50.908;4.204;2022-11-28T04:21:15;8.20;99.90
15717;DHT22;7960;50.908;4.204;2022-11-28T04:23:46;8.20;99.90
15717;DHT22;7960;50.908;4.204;2022-11-28T04:26:17;8.20;99.90
15717;DHT22;7960;50.908;4.204;2022-11-28T04:28:46;8.30;99.90
15717;DHT22;7960;50.908;4.204;2022-11-28T04:31:16;8.20;99.90
15717;DHT22;7960;50.908;4.204;2022-11-28T04:33:47;8.30;99.90
15717;DHT22;7960;50.908;4.204;2022-11-28T04:36:19;8.30;99.90
15717;DHT22;7960;50.908;4.204;2022-11-28T04:38:48;8.20;99.90
15717;DHT22;7960;50.908;4.204;2022-11-28T04:41:23;8.20;99.90
15717;DHT22;7960;50.908;4.204;2022-11-28T04:43:56;8.30;99.90
15717;DHT22;7960;50.908;4.204;2022-11-28T04:46:28;8.30;99.90
15717;DHT22;7960;50.908;4.204;2022-11-28T04:48:56;8.30;99.90
15717;DHT22;7960;50.908;4.204;2022-11-28T04:51:33;8.30;99.90
15717;DHT22;7960;50.908;4.204;2022-11-28T04:54:05;8.40;99.90
15717;DHT22;7960;50.908;4.204;2022-11-28T04:56:39;8.30;99.90
15717;DHT22;7960;50.908;4.204;2022-11-28T04:59:07;8.30;99.90
15717;DHT22;7960;50.908;4.204;2022-11-28T05:01:36;8.30;99.90
15717;DHT22;7960;50.908;4.204;2022-11-28T05:04:04;8.30;99.90
15717;DHT22;7960;50.908;4.204;2022-11-28T05:06:34;8.30;99.90
15717;DHT22;7960;50.908;4.204;2022-11-28T05:09:02;8.30;99.90
15717;DHT22;7960;50.908;4.204;2022-11-28T05:11:30;8.30;99.90
15717;DHT22;7960;50.908;4.204;2022-11-28T05:13:57;8.30;99.90
15717;DHT22;7960;50.908;4.204;2022-11-28T05:16:24;8.30;99.90
15717;DHT22;7960;50.908;4.204;2022-11-28T05:18:51;8.30;99.90
15717;DHT22;7960;50.908;4.204;2022-11-28T05:21:18;8.40;99.90
15717;DHT22;7960;50.908;4.204;2022-11-28T05:23:46;8.40;99.90
15717;DHT22;7960;50.908;4.204;2022-11-28T05:26:15;8.40;99.90
15717;DHT22;7960;50.908;4.204;2022-11-28T05:28:43;8.40;99.90
15717;DHT22;7960;50.908;4.204;2022-11-28T05:31:11;8.40;99.90
15717;DHT22;7960;50.908;4.204;2022-11-28T05:33:38;8.40;99.90
15717;DHT22;7960;50.908;4.204;2022-11-28T05:36:06;8.40;99.90
15717;DHT22;7960;50.908;4.204;2022-11-28T05:38:34;8.50;99.90
15717;DHT22;7960;50.908;4.204;2022-11-28T05:41:02;8.40;99.90
15717;DHT22;7960;50.908;4.204;2022-11-28T05:43:30;8.40;99.90
15717;DHT22;7960;50.908;4.204;2022-11-28T05:45:57;8.40;99.90
15717;DHT22;7960;50.908;4.204;2022-11-28T05:48:24;8.50;99.90
15717;DHT22;7960;50.908;4.204;2022-11-28T05:50:51;8.50;99.90
15717;DHT22;7960;50.908;4.204;2022-11-28T05:53:18;8.50;99.90
15717;DHT22;7960;50.908;4.204;2022-11-28T05:55:46;8.50;99.90
15717;DHT22;7960;50.908;4.204;2022-11-28T05:58:14;8.50;99.90
15717;DHT22;7960;50.908;4.204;2022-11-28T06:00:41;8.50;99.90
15717;DHT22;7960;50.908;4.204;2022-11-28T06:03:08;8.50;99.90
15717;DHT22;7960;50.908;4.204;2022-11-28T06:05:37;8.50;99.90
15717;DHT22;7960;50.908;4.204;2022-11-28T06:08:05;8.50;99.90
15717;DHT22;7960;50.908;4.204;2022-11-28T06:10:32;8.50;99.90
15717;DHT22;7960;50.908;4.204;2022-11-28T06:12:59;8.50;99.90
15717;DHT22;7960;50.908;4.204;2022-11-28T06:15:29;8.50;99.90
15717;DHT22;7960;50.908;4.204;2022-11-28T06:17:56;8.50;99.90
15717;DHT22;7960;50.908;4.204;2022-11-28T06:20:23;8.50;99.90
15717;DHT22;7960;50.908;4.204;2022-11-28T06:22:50;8.50;99.90
15717;DHT22;7960;50.908;4.204;2022-11-28T06:25:16;8.60;99.90
15717;DHT22;7960;50.908;4.204;2022-11-28T06:27:43;8.50;99.90
15717;DHT22;7960;50.908;4.204;2022-11-28T06:30:11;8.60;99.90
15717;DHT22;7960;50.908;4.204;2022-11-28T06:32:39;8.50;99.90
15717;DHT22;7960;50.908;4.204;2022-11-28T06:35:06;8.50;99.90
15717;DHT22;7960;50.908;4.204;2022-11-28T06:37:33;8.40;99.90
15717;DHT22;7960;50.908;4.204;2022-11-28T06:40:00;8.40;99.90
15717;DHT22;7960;50.908;4.204;2022-11-28T06:42:27;8.40;99.90
15717;DHT22;7960;50.908;4.204;2022-11-28T06:44:54;8.40;99.90
15717;DHT22;7960;50.908;4.204;2022-11-28T06:47:21;8.40;99.90
15717;DHT22;7960;50.908;4.204;2022-11-28T06:49:49;8.50;99.90
15717;DHT22;7960;50.908;4.204;2022-11-28T06:52:16;8.60;99.90
15717;DHT22;7960;50.908;4.204;2022-11-28T06:54:43;8.60;99.90
15717;DHT22;7960;50.908;4.204;2022-11-28T06:57:10;8.60;99.90
15717;DHT22;7960;50.908;4.204;2022-11-28T06:59:37;8.60;99.90
15717;DHT22;7960;50.908;4.204;2022-11-28T07:02:04;8.60;99.90
15717;DHT22;7960;50.908;4.204;2022-11-28T07:04:31;8.60;99.90
15717;DHT22;7960;50.908;4.204;2022-11-28T07:07:00;8.60;99.90
15717;DHT22;7960;50.908;4.204;2022-11-28T07:09:27;8.60;99.90
15717;DHT22;7960;50.908;4.204;2022-11-28T07:11:54;8.60;99.90
15717;DHT22;7960;50.908;4.204;2022-11-28T07:14:21;8.60;99.90
15717;DHT22;7960;50.908;4.204;2022-11-28T07:16:48;8.60;99.90
15717;DHT22;7960;50.908;4.204;2022-11-28T07:19:15;8.60;99.90
15717;DHT22;7960;50.908;4.204;2022-11-28T07:21:47;8.60;99.90
15717;DHT22;7960;50.908;4.204;2022-11-28T07:24:16;8.60;99.90
15717;DHT22;7960;50.908;4.204;2022-11-28T07:26:43;8.60;99.90
15717;DHT22;7960;50.908;4.204;2022-11-28T07:29:13;8.60;99.90
15717;DHT22;7960;50.908;4.204;2022-11-28T07:31:40;8.60;99.90
15717;DHT22;7960;50.908;4.204;2022-11-28T07:34:08;8.60;99.90
15717;DHT22;7960;50.908;4.204;2022-11-28T07:36:36;8.60;99.90
15717;DHT22;7960;50.908;4.204;2022-11-28T07:39:05;8.70;99.90
15717;DHT22;7960;50.908;4.204;2022-11-28T07:41:35;8.70;99.90
15717;DHT22;7960;50.908;4.204;2022-11-28T07:44:03;8.70;99.90
15717;DHT22;7960;50.908;4.204;2022-11-28T07:46:31;8.70;99.90
15717;DHT22;7960;50.908;4.204;2022-11-28T07:48:59;8.80;99.90
15717;DHT22;7960;50.908;4.204;2022-11-28T07:51:31;8.70;99.90
15717;DHT22;7960;50.908;4.204;2022-11-28T07:53:59;8.70;99.90
15717;DHT22;7960;50.908;4.204;2022-11-28T07:56:29;8.70;99.90
15717;DHT22;7960;50.908;4.204;2022-11-28T07:58:58;8.70;99.90
15717;DHT22;7960;50.908;4.204;2022-11-28T08:01:27;8.70;99.90
15717;DHT22;7960;50.908;4.204;2022-11-28T08:03:55;8.70;99.90
15717;DHT22;7960;50.908;4.204;2022-11-28T08:06:23;8.80;99.90
15717;DHT22;7960;50.908;4.204;2022-11-28T08:08:52;8.80;99.90
15717;DHT22;7960;50.908;4.204;2022-11-28T08:11:22;8.80;99.90
15717;DHT22;7960;50.908;4.204;2022-11-28T08:13:50;8.80;99.90
15717;DHT22;7960;50.908;4.204;2022-11-28T08:16:21;8.80;99.90
15717;DHT22;7960;50.908;4.204;2022-11-28T08:18:49;8.70;99.90
15717;DHT22;7960;50.908;4.204;2022-11-28T08:21:19;8.80;99.90
15717;DHT22;7960;50.908;4.204;2022-11-28T08:23:48;8.70;99.90
15717;DHT22;7960;50.908;4.204;2022-11-28T08:26:17;8.80;99.90
15717;DHT22;7960;50.908;4.204;2022-11-28T08:28:45;8.80;99.90
15717;DHT22;7960;50.908;4.204;2022-11-28T08:31:13;8.80;99.90
15717;DHT22;7960;50.908;4.204;2022-11-28T08:33:42;8.70;99.90
15717;DHT22;7960;50.908;4.204;2022-11-28T08:36:11;8.80;99.90
15717;DHT22;7960;50.908;4.204;2022-11-28T08:38:40;8.80;99.90
15717;DHT22;7960;50.908;4.204;2022-11-28T08:41:10;8.90;99.90
15717;DHT22;7960;50.908;4.204;2022-11-28T08:43:38;8.90;99.90
15717;DHT22;7960;50.908;4.204;2022-11-28T08:46:07;8.90;99.90
15717;DHT22;7960;50.908;4.204;2022-11-28T08:48:35;8.90;99.90
15717;DHT22;7960;50.908;4.204;2022-11-28T08:51:03;8.90;99.90
15717;DHT22;7960;50.908;4.204;2022-11-28T08:53:30;8.90;99.90
15717;DHT22;7960;50.908;4.204;2022-11-28T08:55:59;8.80;99.90
15717;DHT22;7960;50.908;4.204;2022-11-28T08:58:26;8.90;99.90
15717;DHT22;7960;50.908;4.204;2022-11-28T09:00:53;8.90;99.90
15717;DHT22;7960;50.908;4.204;2022-11-28T09:03:20;8.90;99.90
15717;DHT22;7960;50.908;4.204;2022-11-28T09:05:47;8.90;99.90
15717;DHT22;7960;50.908;4.204;2022-11-28T09:08:17;8.90;99.90
15717;DHT22;7960;50.908;4.204;2022-11-28T09:10:45;8.90;99.90
15717;DHT22;7960;50.908;4.204;2022-11-28T09:13:13;8.90;99.90
15717;DHT22;7960;50.908;4.204;2022-11-28T09:15:41;8.90;99.90
15717;DHT22;7960;50.908;4.204;2022-11-28T09:18:08;8.90;99.90
15717;DHT22;7960;50.908;4.204;2022-11-28T09:20:35;8.90;99.90
15717;DHT22;7960;50.908;4.204;2022-11-28T09:23:02;8.90;99.90
15717;DHT22;7960;50.908;4.204;2022-11-28T09:25:30;8.90;99.90
15717;DHT22;7960;50.908;4.204;2022-11-28T09:27:58;8.90;99.90
15717;DHT22;7960;50.908;4.204;2022-11-28T09:30:26;9.00;99.90
15717;DHT22;7960;50.908;4.204;2022-11-28T09:32:52;9.00;99.90
15717;DHT22;7960;50.908;4.204;2022-11-28T09:35:19;9.00;99.90
15717;DHT22;7960;50.908;4.204;2022-11-28T09:37:46;9.00;99.90
15717;DHT22;7960;50.908;4.204;2022-11-28T09:40:15;9.00;99.90
15717;DHT22;7960;50.908;4.204;2022-11-28T09:42:45;9.00;99.90
15717;DHT22;7960;50.908;4.204;2022-11-28T09:45:15;9.00;99.90
15717;DHT22;7960;50.908;4.204;2022-11-28T09:47:46;9.00;99.90
15717;DHT22;7960;50.908;4.204;2022-11-28T09:50:17;9.10;99.90
15717;DHT22;7960;50.908;4.204;2022-11-28T09:52:51;9.10;99.90
15717;DHT22;7960;50.908;4.204;2022-11-28T09:55:25;9.10;99.90
15717;DHT22;7960;50.908;4.204;2022-11-28T09:57:55;9.20;99.90
15717;DHT22;7960;50.908;4.204;2022-11-28T10:00:29;9.20;99.90
15717;DHT22;7960;50.908;4.204;2022-11-28T10:03:20;9.20;99.90
15717;DHT22;7960;50.908;4.204;2022-11-28T10:05:58;9.30;99.90
15717;DHT22;7960;50.908;4.204;2022-11-28T10:08:34;9.40;99.90
15717;DHT22;7960;50.908;4.204;2022-11-28T10:11:08;9.30;99.90
15717;DHT22;7960;50.908;4.204;2022-11-28T10:13:42;9.40;99.90
15717;DHT22;7960;50.908;4.204;2022-11-28T10:16:16;9.40;99.90
15717;DHT22;7960;50.908;4.204;2022-11-28T10:18:48;9.40;99.90
15717;DHT22;7960;50.908;4.204;2022-11-28T10:21:23;9.50;99.90
15717;DHT22;7960;50.908;4.204;2022-11-28T10:23:53;9.50;99.90
15717;DHT22;7960;50.908;4.204;2022-11-28T10:26:28;9.50;99.90
15717;DHT22;7960;50.908;4.204;2022-11-28T10:28:58;9.40;99.90
15717;DHT22;7960;50.908;4.204;2022-11-28T10:31:31;9.50;99.90
15717;DHT22;7960;50.908;4.204;2022-11-28T10:34:04;9.50;99.90
15717;DHT22;7960;50.908;4.204;2022-11-28T10:36:39;9.60;99.90
15717;DHT22;7960;50.908;4.204;2022-11-28T10:39:11;9.50;99.90
15717;DHT22;7960;50.908;4.204;2022-11-28T10:41:52;9.50;99.90
15717;DHT22;7960;50.908;4.204;2022-11-28T10:44:50;9.50;99.90
15717;DHT22;7960;50.908;4.204;2022-11-28T10:47:23;9.60;99.90
15717;DHT22;7960;50.908;4.204;2022-11-28T10:50:00;9.60;99.90
15717;DHT22;7960;50.908;4.204;2022-11-28T10:52:34;9.60;99.90
15717;DHT22;7960;50.908;4.204;2022-11-28T10:55:18;9.60;99.90
15717;DHT22;7960;50.908;4.204;2022-11-28T10:57:54;9.60;99.90
15717;DHT22;7960;50.908;4.204;2022-11-28T11:00:25;9.50;99.90
15717;DHT22;7960;50.908;4.204;2022-11-28T11:02:53;9.60;99.90
15717;DHT22;7960;50.908;4.204;2022-11-28T11:05:24;9.60;99.90
15717;DHT22;7960;50.908;4.204;2022-11-28T11:07:53;9.60;99.90
15717;DHT22;7960;50.908;4.204;2022-11-28T11:10:22;9.70;99.90
15717;DHT22;7960;50.908;4.204;2022-11-28T11:12:51;9.60;99.90
15717;DHT22;7960;50.908;4.204;2022-11-28T11:15:28;9.60;99.90
15717;DHT22;7960;50.908;4.204;2022-11-28T11:17:55;9.70;99.90
15717;DHT22;7960;50.908;4.204;2022-11-28T11:20:36;9.70;99.90
15717;DHT22;7960;50.908;4.204;2022-11-28T11:23:13;9.70;99.90
15717;DHT22;7960;50.908;4.204;2022-11-28T11:25:46;9.70;99.90
15717;DHT22;7960;50.908;4.204;2022-11-28T11:28:26;9.60;99.90
15717;DHT22;7960;50.908;4.204;2022-11-28T11:31:00;9.60;99.90
15717;DHT22;7960;50.908;4.204;2022-11-28T11:33:31;9.60;99.90
15717;DHT22;7960;50.908;4.204;2022-11-28T11:35:59;9.50;99.90
15717;DHT22;7960;50.908;4.204;2022-11-28T11:38:29;9.50;99.90
15717;DHT22;7960;50.908;4.204;2022-11-28T11:41:18;9.60;99.90
15717;DHT22;7960;50.908;4.204;2022-11-28T11:43:46;9.60;99.90
15717;DHT22;7960;50.908;4.204;2022-11-28T11:46:16;9.60;99.90
15717;DHT22;7960;50.908;4.204;2022-11-28T11:48:44;9.50;99.90
15717;DHT22;7960;50.908;4.204;2022-11-28T11:51:23;9.50;99.90
15717;DHT22;7960;50.908;4.204;2022-11-28T11:54:02;9.50;99.90
15717;DHT22;7960;50.908;4.204;2022-11-28T11:56:32;9.50;99.90
15717;DHT22;7960;50.908;4.204;2022-11-28T11:59:04;9.50;99.90
15717;DHT22;7960;50.908;4.204;2022-11-28T12:01:34;9.50;99.90
15717;DHT22;7960;50.908;4.204;2022-11-28T12:04:04;9.50;99.90
15717;DHT22;7960;50.908;4.204;2022-11-28T12:06:36;9.50;99.90
15717;DHT22;7960;50.908;4.204;2022-11-28T12:09:11;9.50;99.90
15717;DHT22;7960;50.908;4.204;2022-11-28T12:11:46;9.50;99.90
15717;DHT22;7960;50.908;4.204;2022-11-28T12:14:25;9.50;99.90
15717;DHT22;7960;50.908;4.204;2022-11-28T12:17:03;9.60;99.90
15717;DHT22;7960;50.908;4.204;2022-11-28T12:19:38;9.60;99.90
15717;DHT22;7960;50.908;4.204;2022-11-28T12:22:14;9.60;99.90
15717;DHT22;7960;50.908;4.204;2022-11-28T12:24:53;9.60;99.90
15717;DHT22;7960;50.908;4.204;2022-11-28T12:27:31;9.60;99.90
15717;DHT22;7960;50.908;4.204;2022-11-28T12:30:19;9.70;99.90
15717;DHT22;7960;50.908;4.204;2022-11-28T12:32:58;9.70;99.90
15717;DHT22;7960;50.908;4.204;2022-11-28T12:35:35;9.80;99.90
15717;DHT22;7960;50.908;4.204;2022-11-28T12:38:12;9.80;99.90
15717;DHT22;7960;50.908;4.204;2022-11-28T12:41:00;9.90;99.90
15717;DHT22;7960;50.908;4.204;2022-11-28T12:43:39;9.90;99.90
15717;DHT22;7960;50.908;4.204;2022-11-28T12:46:14;9.90;99.90
15717;DHT22;7960;50.908;4.204;2022-11-28T12:49:03;9.90;99.90
15717;DHT22;7960;50.908;4.204;2022-11-28T12:51:39;9.90;99.90
15717;DHT22;7960;50.908;4.204;2022-11-28T12:57:07;10.00;99.90
15717;DHT22;7960;50.908;4.204;2022-11-28T12:59:43;10.10;99.90
15717;DHT22;7960;50.908;4.204;2022-11-28T13:02:23;10.10;99.90
15717;DHT22;7960;50.908;4.204;2022-11-28T13:08:20;10.00;99.90
15717;DHT22;7960;50.908;4.204;2022-11-28T13:10:59;10.20;99.90
15717;DHT22;7960;50.908;4.204;2022-11-28T13:13:31;10.20;99.90
15717;DHT22;7960;50.908;4.204;2022-11-28T13:16:09;10.20;99.90
15717;DHT22;7960;50.908;4.204;2022-11-28T13:18:39;10.10;99.90
15717;DHT22;7960;50.908;4.204;2022-11-28T13:21:18;10.10;99.90
15717;DHT22;7960;50.908;4.204;2022-11-28T13:23:52;10.10;99.90
15717;DHT22;7960;50.908;4.204;2022-11-28T13:26:34;10.10;99.90
15717;DHT22;7960;50.908;4.204;2022-11-28T13:29:08;10.20;99.90
15717;DHT22;7960;50.908;4.204;2022-11-28T13:31:41;10.10;99.90
15717;DHT22;7960;50.908;4.204;2022-11-28T13:34:14;10.20;99.90
15717;DHT22;7960;50.908;4.204;2022-11-28T13:36:48;10.00;99.90
15717;DHT22;7960;50.908;4.204;2022-11-28T13:39:24;10.10;99.90
15717;DHT22;7960;50.908;4.204;2022-11-28T13:42:02;10.10;99.90
15717;DHT22;7960;50.908;4.204;2022-11-28T13:44:34;10.10;99.90
15717;DHT22;7960;50.908;4.204;2022-11-28T13:47:13;10.20;99.90
15717;DHT22;7960;50.908;4.204;2022-11-28T13:49:40;10.20;99.90
15717;DHT22;7960;50.908;4.204;2022-11-28T13:52:38;10.20;99.90
15717;DHT22;7960;50.908;4.204;2022-11-28T13:55:40;10.20;99.90
15717;DHT22;7960;50.908;4.204;2022-11-28T13:58:18;10.20;99.90
15717;DHT22;7960;50.908;4.204;2022-11-28T14:01:05;10.30;99.90
15717;DHT22;7960;50.908;4.204;2022-11-28T14:03:34;10.30;99.90
15717;DHT22;7960;50.908;4.204;2022-11-28T14:06:04;10.30;99.90
15717;DHT22;7960;50.908;4.204;2022-11-28T14:08:36;10.40;99.90
15717;DHT22;7960;50.908;4.204;2022-11-28T14:14:17;10.40;99.90
15717;DHT22;7960;50.908;4.204;2022-11-28T14:16:56;10.40;99.90
15717;DHT22;7960;50.908;4.204;2022-11-28T14:19:37;10.30;99.90
15717;DHT22;7960;50.908;4.204;2022-11-28T14:22:21;10.30;99.90
15717;DHT22;7960;50.908;4.204;2022-11-28T14:25:01;10.30;99.90
15717;DHT22;7960;50.908;4.204;2022-11-28T14:27:31;10.20;99.90
15717;DHT22;7960;50.908;4.204;2022-11-28T14:29:59;10.30;99.90
15717;DHT22;7960;50.908;4.204;2022-11-28T14:32:33;10.30;99.90
15717;DHT22;7960;50.908;4.204;2022-11-28T14:35:02;10.40;99.90
15717;DHT22;7960;50.908;4.204;2022-11-28T14:37:53;10.40;99.90
15717;DHT22;7960;50.908;4.204;2022-11-28T14:41:00;10.40;99.90
15717;DHT22;7960;50.908;4.204;2022-11-28T14:43:28;10.30;99.90
15717;DHT22;7960;50.908;4.204;2022-11-28T14:46:25;10.30;99.90
15717;DHT22;7960;50.908;4.204;2022-11-28T14:49:20;10.30;99.90
15717;DHT22;7960;50.908;4.204;2022-11-28T14:54:51;10.30;99.90
15717;DHT22;7960;50.908;4.204;2022-11-28T14:57:23;10.30;99.90
15717;DHT22;7960;50.908;4.204;2022-11-28T14:59:51;10.30;99.90
15717;DHT22;7960;50.908;4.204;2022-11-28T15:02:33;10.30;99.90
15717;DHT22;7960;50.908;4.204;2022-11-28T15:08:14;10.20;99.90
15717;DHT22;7960;50.908;4.204;2022-11-28T15:10:48;10.30;99.90
15717;DHT22;7960;50.908;4.204;2022-11-28T15:13:33;10.30;99.90
15717;DHT22;7960;50.908;4.204;2022-11-28T15:16:02;10.30;99.90
15717;DHT22;7960;50.908;4.204;2022-11-28T15:18:34;10.30;99.90
15717;DHT22;7960;50.908;4.204;2022-11-28T15:21:04;10.20;99.90
15717;DHT22;7960;50.908;4.204;2022-11-28T15:23:36;10.20;99.90
15717;DHT22;7960;50.908;4.204;2022-11-28T15:26:04;10.20;99.90
15717;DHT22;7960;50.908;4.204;2022-11-28T15:28:35;10.30;99.90
15717;DHT22;7960;50.908;4.204;2022-11-28T15:31:03;10.20;99.90
15717;DHT22;7960;50.908;4.204;2022-11-28T15:33:31;10.30;99.90
15717;DHT22;7960;50.908;4.204;2022-11-28T15:36:00;10.30;99.90
15717;DHT22;7960;50.908;4.204;2022-11-28T15:38:29;10.20;99.90
15717;DHT22;7960;50.908;4.204;2022-11-28T15:40:57;10.20;99.90
15717;DHT22;7960;50.908;4.204;2022-11-28T15:43:25;10.10;99.90
15717;DHT22;7960;50.908;4.204;2022-11-28T15:45:56;10.10;99.90
15717;DHT22;7960;50.908;4.204;2022-11-28T15:48:26;10.00;99.90
15717;DHT22;7960;50.908;4.204;2022-11-28T15:50:54;10.00;99.90
15717;DHT22;7960;50.908;4.204;2022-11-28T15:53:21;10.00;99.90
15717;DHT22;7960;50.908;4.204;2022-11-28T15:56:06;10.00;99.90
15717;DHT22;7960;50.908;4.204;2022-11-28T15:58:33;10.00;99.90
15717;DHT22;7960;50.908;4.204;2022-11-28T16:01:07;9.90;99.90
15717;DHT22;7960;50.908;4.204;2022-11-28T16:03:44;9.90;99.90
15717;DHT22;7960;50.908;4.204;2022-11-28T16:06:13;9.90;99.90
15717;DHT22;7960;50.908;4.204;2022-11-28T16:08:46;9.90;99.90
15717;DHT22;7960;50.908;4.204;2022-11-28T16:11:16;9.90;99.90
15717;DHT22;7960;50.908;4.204;2022-11-28T16:13:45;9.90;99.90
15717;DHT22;7960;50.908;4.204;2022-11-28T16:16:15;9.90;99.90
15717;DHT22;7960;50.908;4.204;2022-11-28T16:18:44;9.90;99.90
15717;DHT22;7960;50.908;4.204;2022-11-28T16:21:12;9.90;99.90
15717;DHT22;7960;50.908;4.204;2022-11-28T16:23:40;9.90;99.90
15717;DHT22;7960;50.908;4.204;2022-11-28T16:26:20;9.90;99.90
15717;DHT22;7960;50.908;4.204;2022-11-28T16:28:57;9.90;99.90
15717;DHT22;7960;50.908;4.204;2022-11-28T16:31:27;9.90;99.90
15717;DHT22;7960;50.908;4.204;2022-11-28T16:33:54;9.90;99.90
15717;DHT22;7960;50.908;4.204;2022-11-28T16:36:23;9.90;99.90
15717;DHT22;7960;50.908;4.204;2022-11-28T16:38:52;9.90;99.90
15717;DHT22;7960;50.908;4.204;2022-11-28T16:41:21;9.90;99.90
15717;DHT22;7960;50.908;4.204;2022-11-28T16:43:51;9.80;99.90
15717;DHT22;7960;50.908;4.204;2022-11-28T16:46:21;9.90;99.90